Weather at Groton New London Airport

Public forecast

Using degrees Fahrenheit for public forecast. Weather courtesy of forecast.io.

Current aviation weather report (METAR) for Groton New London Airport

Report is more than 6 hours old.

2022/11/14 14:56 (retrieved 2 years ago)

KGON 141456Z 30015G25KT 10SM CLR 06/M06 A3026 RMK AO2 SLP245 T00611061 51017

Aviation forecast (TAF) for Groton New London Airport

Forecast is more than 12 hours old.

2023/02/22 18:24 (retrieved 1 year ago)

TAF KGON 221722Z 2218/2318 23007KT P6SM OVC100 FM222200 18005KT 6SM -RA BR SCT025 OVC050 TEMPO 2222/2223 -RASN OVC015 FM222300 10005KT 5SM -RA OVC010 FM230000 09007KT 5SM -RA BR OVC008 FM230500 06006KT 3SM -RADZ BR OVC006 FM231200 06004KT 1SM -DZ BR OVC007